createdAt,value
2022-08-17T00:00:51.865Z,24.37
2022-08-17T00:06:13.666Z,24.20
2022-08-17T00:11:22.298Z,24.23
2022-08-17T00:16:50.415Z,24.19
2022-08-17T00:22:32.107Z,24.12
2022-08-17T00:27:18.678Z,24.14
2022-08-17T00:33:11.876Z,24.17
2022-08-17T00:37:42.136Z,24.19
2022-08-17T00:42:45.612Z,24.19
2022-08-17T00:47:47.657Z,24.03
2022-08-17T00:52:56.263Z,24.06
2022-08-17T00:58:01.598Z,24.02
2022-08-17T01:03:15.119Z,23.98
2022-08-17T01:08:19.649Z,23.88
2022-08-17T01:13:21.967Z,23.95
2022-08-17T01:18:24.153Z,23.72
2022-08-17T01:23:28.462Z,23.93
2022-08-17T01:28:52.799Z,23.83
2022-08-17T01:33:54.443Z,23.73
2022-08-17T01:38:56.139Z,23.73
2022-08-17T01:44:02.703Z,23.70
2022-08-17T01:49:09.913Z,23.66
2022-08-17T01:54:14.817Z,23.52
2022-08-17T01:59:19.797Z,23.54
2022-08-17T02:04:21.747Z,23.51
2022-08-17T02:09:29.505Z,23.38
2022-08-17T02:14:31.425Z,23.33
2022-08-17T02:19:32.979Z,23.37
2022-08-17T02:24:59.869Z,23.20
2022-08-17T02:29:58.312Z,23.15
2022-08-17T02:35:00.426Z,23.14
2022-08-17T02:40:02.717Z,23.03
2022-08-17T02:45:07.958Z,23.07
2022-08-17T02:50:12.130Z,23.01
2022-08-17T02:55:24.022Z,22.97
2022-08-17T03:00:29.948Z,22.85
2022-08-17T03:05:33.696Z,22.80
2022-08-17T03:10:35.168Z,22.69
2022-08-17T03:15:36.686Z,22.72
2022-08-17T03:20:42.292Z,22.63
2022-08-17T03:25:46.315Z,22.61
2022-08-17T03:30:47.789Z,22.52
2022-08-17T03:35:49.404Z,22.54
2022-08-17T03:40:56.488Z,22.57
2022-08-17T03:46:33.800Z,22.43
2022-08-17T03:51:55.618Z,22.46
2022-08-17T03:57:09.743Z,22.33
2022-08-17T04:02:18.773Z,22.31
2022-08-17T04:07:21.899Z,22.31
2022-08-17T04:12:24.325Z,22.17
2022-08-17T04:17:28.729Z,22.35
2022-08-17T04:22:34.238Z,22.33
2022-08-17T04:27:36.218Z,22.22
2022-08-17T04:33:06.143Z,22.27
2022-08-17T04:38:11.873Z,22.19
2022-08-17T04:43:16.483Z,22.22
2022-08-17T04:48:20.754Z,22.23
2022-08-17T04:53:22.203Z,22.15
2022-08-17T04:58:23.667Z,22.21
2022-08-17T05:03:25.093Z,22.22
2022-08-17T05:08:26.684Z,22.08
2022-08-17T05:13:32.234Z,22.26
2022-08-17T05:18:33.709Z,22.27
2022-08-17T05:23:43.013Z,22.24
2022-08-17T05:28:45.037Z,22.28
2022-08-17T05:33:47.557Z,22.28
2022-08-17T05:38:49.012Z,22.42
2022-08-17T05:43:54.377Z,22.43
2022-08-17T05:49:03.505Z,22.50
2022-08-17T05:54:56.744Z,22.54
2022-08-17T06:00:04.539Z,22.61
2022-08-17T06:05:17.273Z,22.64
2022-08-17T06:10:43.883Z,22.64
2022-08-17T06:15:59.483Z,22.80
2022-08-17T06:21:05.612Z,22.87
2022-08-17T06:26:17.459Z,22.90
2022-08-17T06:31:23.323Z,22.98
2022-08-17T06:36:33.927Z,23.19
2022-08-17T06:42:54.084Z,23.18
2022-08-17T06:47:59.498Z,23.12
2022-08-17T06:53:25.758Z,23.50
2022-08-17T06:58:31.817Z,23.57
2022-08-17T07:03:42.401Z,23.70
2022-08-17T07:09:01.047Z,23.95
2022-08-17T07:14:31.215Z,24.10
2022-08-17T07:19:35.046Z,24.18
2022-08-17T07:24:59.553Z,24.30
2022-08-17T07:30:16.075Z,24.48
2022-08-17T07:35:37.602Z,24.56
2022-08-17T07:40:57.993Z,24.71
2022-08-17T07:46:21.653Z,24.75
2022-08-17T07:51:27.703Z,24.89
2022-08-17T07:56:55.761Z,24.93
2022-08-17T08:02:06.655Z,24.99
2022-08-17T08:07:14.059Z,25.09
2022-08-17T08:12:27.174Z,25.13
2022-08-17T08:17:46.439Z,25.33
2022-08-17T08:23:15.473Z,25.37
2022-08-17T08:28:35.139Z,25.51
2022-08-17T08:33:49.195Z,25.54
2022-08-17T08:39:02.875Z,25.72
2022-08-17T08:44:16.217Z,25.71
2022-08-17T08:50:01.917Z,25.74
2022-08-17T08:55:12.319Z,25.76
2022-08-17T09:00:18.977Z,26.04
2022-08-17T09:05:23.074Z,26.03
2022-08-17T09:10:30.687Z,26.16
2022-08-17T09:15:42.565Z,26.13
2022-08-17T09:21:10.001Z,26.33
2022-08-17T09:26:22.800Z,26.28
2022-08-17T09:31:47.043Z,26.32
2022-08-17T09:37:20.520Z,26.29
2022-08-17T09:42:48.271Z,26.28
2022-08-17T09:48:27.498Z,26.28
2022-08-17T09:53:32.013Z,26.40
2022-08-17T09:58:50.367Z,26.43
2022-08-17T10:03:59.343Z,26.43
2022-08-17T10:09:09.668Z,26.45
2022-08-17T10:14:37.517Z,26.41
2022-08-17T10:19:58.636Z,26.48
2022-08-17T10:25:24.876Z,26.45
2022-08-17T10:30:35.584Z,26.46
2022-08-17T10:36:10.160Z,26.47
2022-08-17T10:41:19.641Z,26.45
2022-08-17T10:46:46.962Z,26.37
2022-08-17T10:51:55.066Z,26.34
2022-08-17T10:56:57.376Z,26.25
2022-08-17T11:02:12.281Z,26.16
2022-08-17T11:07:43.678Z,26.11
2022-08-17T11:13:11.458Z,25.96
2022-08-17T11:18:37.534Z,25.85
2022-08-17T11:23:50.819Z,25.76
2022-08-17T11:28:58.696Z,25.68
2022-08-17T11:34:07.657Z,25.68
2022-08-17T11:39:35.648Z,25.52
2022-08-17T11:44:53.520Z,25.41
2022-08-17T11:50:59.486Z,25.40
2022-08-17T11:56:05.225Z,25.40
2022-08-17T12:01:09.723Z,25.32
2022-08-17T12:06:31.176Z,25.38
2022-08-17T12:12:13.224Z,25.47
2022-08-17T12:17:40.794Z,25.51
2022-08-17T12:22:56.370Z,25.52
2022-08-17T12:28:06.753Z,25.51
2022-08-17T12:33:13.784Z,25.63
2022-08-17T12:38:33.037Z,25.63
2022-08-17T12:43:35.070Z,25.57
2022-08-17T12:48:37.052Z,25.83
2022-08-17T12:53:40.765Z,25.82
2022-08-17T12:58:54.057Z,25.98
2022-08-17T13:03:59.632Z,26.06
2022-08-17T13:09:18.411Z,26.13
2022-08-17T13:14:19.946Z,26.19
2022-08-17T13:19:40.139Z,26.29
2022-08-17T13:24:53.000Z,26.39
2022-08-17T13:29:59.527Z,26.31
2022-08-17T13:35:14.381Z,26.32
2022-08-17T13:40:19.094Z,26.43
2022-08-17T13:45:50.481Z,26.40
2022-08-17T13:50:55.420Z,26.59
2022-08-17T13:56:07.302Z,26.58
2022-08-17T14:01:54.346Z,26.54
2022-08-17T14:07:12.410Z,26.60
2022-08-17T14:12:18.161Z,26.59
2022-08-17T14:17:20.053Z,26.56
2022-08-17T14:22:28.850Z,26.64
2022-08-17T14:27:33.990Z,26.51
2022-08-17T14:32:45.192Z,26.38
2022-08-17T14:37:47.946Z,26.37
2022-08-17T14:42:49.786Z,26.47
2022-08-17T14:47:51.475Z,26.30
2022-08-17T14:52:55.104Z,26.38
2022-08-17T14:57:57.145Z,26.32
2022-08-17T15:03:00.267Z,26.33
2022-08-17T15:08:02.955Z,26.46
2022-08-17T15:13:10.312Z,26.44
2022-08-17T15:18:12.042Z,26.46
2022-08-17T15:23:15.696Z,26.45
2022-08-17T15:28:17.271Z,26.39
2022-08-17T15:33:22.007Z,26.42
2022-08-17T15:38:23.861Z,26.44
2022-08-17T15:43:28.428Z,26.31
2022-08-17T15:48:44.578Z,26.40
2022-08-17T15:53:49.343Z,26.36
2022-08-17T15:58:52.331Z,26.36
2022-08-17T16:04:05.229Z,26.32
2022-08-17T16:09:19.493Z,26.27
2022-08-17T16:14:20.942Z,26.25
2022-08-17T16:19:22.442Z,26.21
2022-08-17T16:24:23.880Z,26.16
2022-08-17T16:29:25.380Z,26.20
2022-08-17T16:34:26.815Z,26.11
2022-08-17T16:39:29.197Z,26.05
2022-08-17T16:44:32.098Z,26.05
2022-08-17T16:49:36.785Z,25.97
2022-08-17T16:54:44.200Z,25.92
2022-08-17T16:59:50.122Z,25.82
2022-08-17T17:04:59.985Z,25.77
2022-08-17T17:10:09.037Z,25.67
2022-08-17T17:15:10.835Z,25.59
2022-08-17T17:20:16.661Z,25.48
2022-08-17T17:26:02.967Z,25.41
2022-08-17T17:31:23.710Z,25.29
2022-08-17T17:36:50.102Z,25.13
2022-08-17T17:41:58.877Z,25.14
2022-08-17T17:47:02.595Z,25.18
2022-08-17T17:52:13.341Z,25.15
2022-08-17T17:57:29.510Z,25.09
2022-08-17T18:03:04.400Z,25.05
2022-08-17T18:08:34.766Z,25.00
2022-08-17T18:13:36.404Z,24.91
2022-08-17T18:18:40.044Z,24.81
2022-08-17T18:24:02.544Z,24.68
2022-08-17T18:29:30.098Z,24.72
2022-08-17T18:34:48.528Z,24.58
2022-08-17T18:39:50.425Z,24.61
2022-08-17T18:44:55.257Z,24.49
2022-08-17T18:50:16.845Z,24.48
2022-08-17T18:55:22.752Z,24.35
2022-08-17T19:00:30.150Z,24.28
2022-08-17T19:05:37.694Z,24.20
2022-08-17T19:10:47.044Z,24.14
2022-08-17T19:16:11.454Z,24.07
2022-08-17T19:21:23.052Z,23.96
2022-08-17T19:26:54.502Z,23.93
2022-08-17T19:31:58.380Z,23.82
2022-08-17T19:37:30.322Z,23.80
2022-08-17T19:42:49.767Z,23.73
2022-08-17T19:48:13.560Z,23.72
2022-08-17T19:53:19.513Z,23.64
2022-08-17T19:58:46.351Z,23.61
2022-08-17T20:04:07.570Z,23.53
2022-08-17T20:09:24.965Z,23.32
2022-08-17T20:14:55.408Z,23.30
2022-08-17T20:20:19.731Z,23.19
2022-08-17T20:25:30.080Z,23.01
2022-08-17T20:30:38.458Z,22.94
2022-08-17T20:35:59.656Z,23.03
2022-08-17T20:41:04.067Z,22.93
2022-08-17T20:46:36.146Z,22.86
2022-08-17T20:52:01.184Z,22.71
2022-08-17T20:57:09.276Z,22.79
2022-08-17T21:02:20.764Z,22.67
2022-08-17T21:07:24.482Z,22.58
2022-08-17T21:12:42.465Z,22.56
2022-08-17T21:17:53.931Z,22.39
2022-08-17T21:23:23.206Z,22.47
2022-08-17T21:29:00.431Z,22.47
2022-08-17T21:34:15.165Z,22.38
2022-08-17T21:39:23.329Z,22.38
2022-08-17T21:44:41.577Z,22.32
2022-08-17T21:49:43.501Z,22.27
2022-08-17T21:54:54.871Z,22.20
2022-08-17T21:59:58.576Z,22.03
2022-08-17T22:05:04.861Z,22.07
2022-08-17T22:10:27.034Z,21.94
2022-08-17T22:15:28.526Z,21.86
2022-08-17T22:20:30.003Z,21.70
2022-08-17T22:25:35.820Z,21.73
2022-08-17T22:31:01.504Z,21.63
2022-08-17T22:36:22.630Z,21.55
2022-08-17T22:42:06.266Z,21.45
2022-08-17T22:47:29.252Z,21.23
2022-08-17T22:52:56.651Z,21.06
2022-08-17T22:58:17.163Z,21.00
2022-08-17T23:03:22.161Z,20.96
2022-08-17T23:08:24.071Z,20.94
2022-08-17T23:13:26.446Z,20.84
2022-08-17T23:18:27.861Z,20.82
2022-08-17T23:23:29.334Z,20.70
2022-08-17T23:28:30.742Z,20.80
2022-08-17T23:33:38.508Z,20.45
2022-08-17T23:38:40.119Z,20.43
2022-08-17T23:43:45.088Z,20.44
2022-08-17T23:48:47.548Z,20.42
2022-08-17T23:53:55.153Z,20.03
2022-08-17T23:58:57.954Z,20.00
